Aviation Digital Data Service (ADDS)

Output produced by METARs form (0636 UTC 21 August 2017)
found at http://aviationweather.gov/adds/metars/
 
KISP 210541Z 2106/2206 VRB03KT P6SM SKC 
     FM211400 23007KT P6SM FEW250 
     FM211800 21011G17KT P6SM FEW050 SCT250 
     FM220100 21008KT P6SM SCT150 BKN250